createdAt,value
2022-10-12T00:01:45.310Z,100755.28
2022-10-12T00:04:33.607Z,100748.19
2022-10-12T00:07:24.359Z,100750.16
2022-10-12T00:10:12.333Z,100749.38
2022-10-12T00:13:00.943Z,100750.16
2022-10-12T00:15:49.167Z,100760.38
2022-10-12T00:18:38.083Z,100765.88
2022-10-12T00:21:30.143Z,100755.34
2022-10-12T00:24:18.060Z,100763.19
2022-10-12T00:27:05.875Z,100758.09
2022-10-12T00:29:53.728Z,100760.44
2022-10-12T00:32:42.029Z,100756.88
2022-10-12T00:35:29.931Z,100761.22
2022-10-12T00:38:17.818Z,100761.28
2022-10-12T00:41:06.024Z,100752.66
2022-10-12T00:43:58.173Z,100760.13
2022-10-12T00:46:49.740Z,100754.97
2022-10-12T00:49:37.913Z,100749.06
2022-10-12T00:52:54.321Z,100744.78
2022-10-12T00:55:51.526Z,100736.16
2022-10-12T00:58:39.545Z,100752.25
2022-10-12T01:01:28.200Z,100748.75
2022-10-12T01:04:16.308Z,100748.34
2022-10-12T01:07:04.267Z,100756.59
2022-10-12T01:09:52.705Z,100755.41
2022-10-12T01:12:43.317Z,100747.56
2022-10-12T01:16:09.063Z,100746.03
2022-10-12T01:19:30.093Z,100747.56
2022-10-12T01:22:20.744Z,100755.81
2022-10-12T01:25:34.729Z,100752.66
2022-10-12T01:28:49.166Z,100748.38
2022-10-12T01:31:46.530Z,100748.75
2022-10-12T01:35:22.706Z,100749.13
2022-10-12T01:38:54.428Z,100760.53
2022-10-12T01:41:58.649Z,100750.75
2022-10-12T01:44:46.633Z,100749.56
2022-10-12T01:47:35.796Z,100751.53
2022-10-12T01:50:37.471Z,100753.09
2022-10-12T01:53:46.233Z,100738.19
2022-10-12T01:56:58.055Z,100740.16
2022-10-12T02:00:08.141Z,100735.88
2022-10-12T02:03:21.817Z,100735.47
2022-10-12T02:06:18.707Z,100728.81
2022-10-12T02:09:26.420Z,100732.34
2022-10-12T02:12:22.505Z,100741.75
2022-10-12T02:15:12.047Z,100729.19
2022-10-12T02:18:03.455Z,100736.66
2022-10-12T02:20:53.991Z,100722.53
2022-10-12T02:23:43.733Z,100728.00
2022-10-12T02:26:34.703Z,100726.81
2022-10-12T02:29:29.017Z,100721.31
2022-10-12T02:32:54.846Z,100712.28
2022-10-12T02:36:01.868Z,100715.81
2022-10-12T02:39:03.102Z,100715.47
2022-10-12T02:41:54.930Z,100709.97
2022-10-12T02:44:43.728Z,100706.84
2022-10-12T02:47:33.177Z,100704.47
2022-10-12T02:50:22.960Z,100706.44
2022-10-12T02:53:12.620Z,100708.78
2022-10-12T02:56:12.589Z,100702.13
2022-10-12T02:59:00.645Z,100702.91
2022-10-12T03:01:48.686Z,100707.25
2022-10-12T03:04:37.446Z,100700.97
2022-10-12T03:07:25.436Z,100697.81
2022-10-12T03:10:15.106Z,100700.94
2022-10-12T03:13:03.532Z,100700.97
2022-10-12T03:15:53.807Z,100690.34
2022-10-12T03:18:41.689Z,100693.09
2022-10-12T03:21:39.890Z,100699.78
2022-10-12T03:24:27.916Z,100698.22
2022-10-12T03:27:15.900Z,100691.16
2022-10-12T03:30:04.183Z,100698.22
2022-10-12T03:32:52.036Z,100699.78
2022-10-12T03:35:44.588Z,100694.69
2022-10-12T03:38:32.407Z,100700.16
2022-10-12T03:41:20.294Z,100700.16
2022-10-12T03:44:08.277Z,100702.91
2022-10-12T03:46:59.276Z,100693.88
2022-10-12T03:49:47.232Z,100700.56
2022-10-12T03:52:35.034Z,100702.50
2022-10-12T03:55:23.745Z,100693.88
2022-10-12T03:58:12.650Z,100706.03
2022-10-12T04:01:00.589Z,100698.19
2022-10-12T04:03:48.631Z,100699.72
2022-10-12T04:06:36.451Z,100699.72
2022-10-12T04:09:24.480Z,100705.22
2022-10-12T04:12:12.344Z,100695.44
2022-10-12T04:15:00.255Z,100702.09
2022-10-12T04:17:48.282Z,100698.97
2022-10-12T04:20:36.115Z,100704.84
2022-10-12T04:23:24.015Z,100702.50
2022-10-12T04:26:11.930Z,100697.78
2022-10-12T04:28:59.841Z,100704.47
2022-10-12T04:31:47.638Z,100698.16
2022-10-12T04:34:36.740Z,100701.31
2022-10-12T04:37:26.977Z,100700.94
2022-10-12T04:40:14.805Z,100699.78
2022-10-12T04:43:02.631Z,100701.72
2022-10-12T04:45:58.886Z,100708.81
2022-10-12T04:48:46.897Z,100713.53
2022-10-12T04:51:34.802Z,100717.41
2022-10-12T04:54:22.638Z,100711.53
2022-10-12T04:57:13.111Z,100708.41
2022-10-12T05:00:00.993Z,100710.31
2022-10-12T05:02:48.996Z,100713.47
2022-10-12T05:05:37.044Z,100710.34
2022-10-12T05:08:24.987Z,100705.66
2022-10-12T05:11:13.039Z,100717.00
2022-10-12T05:14:00.871Z,100712.72
2022-10-12T05:16:48.819Z,100708.78
2022-10-12T05:19:36.620Z,100712.31
2022-10-12T05:22:24.412Z,100709.53
2022-10-12T05:25:12.552Z,100712.31
2022-10-12T05:28:00.420Z,100710.75
2022-10-12T05:30:52.998Z,100709.91
2022-10-12T05:33:43.960Z,100707.91
2022-10-12T05:36:35.653Z,100706.75
2022-10-12T05:39:28.515Z,100705.09
2022-10-12T05:42:24.592Z,100697.97
2022-10-12T05:45:16.265Z,100691.75
2022-10-12T05:48:10.547Z,100685.53
2022-10-12T05:51:04.609Z,100697.31
2022-10-12T05:54:13.088Z,100714.56
2022-10-12T05:57:16.129Z,100713.44
2022-10-12T06:00:09.157Z,100710.66
2022-10-12T06:03:09.563Z,100709.91
2022-10-12T06:05:58.296Z,100698.50
2022-10-12T06:08:53.117Z,100702.88
2022-10-12T06:11:58.635Z,100709.16
2022-10-12T06:14:53.072Z,100713.91
2022-10-12T06:17:54.466Z,100704.88
2022-10-12T06:21:21.055Z,100700.16
2022-10-12T06:25:14.866Z,100701.34
2022-10-12T06:28:55.202Z,100709.56
2022-10-12T06:32:06.538Z,100698.31
2022-10-12T06:35:22.337Z,100705.00
2022-10-12T06:38:37.484Z,100698.06
2022-10-12T06:45:34.057Z,100705.81
2022-10-12T06:48:36.271Z,100706.69
2022-10-12T06:52:15.052Z,100697.75
2022-10-12T06:56:14.125Z,100707.31
2022-10-12T07:00:18.776Z,100707.41
2022-10-12T07:02:57.821Z,100696.28
2022-10-12T07:06:02.208Z,100708.31
2022-10-12T07:09:19.149Z,100712.22
2022-10-12T07:12:25.071Z,100707.97
2022-10-12T07:20:11.016Z,100699.97
2022-10-12T07:25:41.453Z,100711.47
2022-10-12T07:28:30.127Z,100724.66
2022-10-12T07:31:45.652Z,100717.72
2022-10-12T07:38:45.429Z,100728.19
2022-10-12T07:41:33.993Z,100731.25
2022-10-12T07:44:28.428Z,100733.25
2022-10-12T07:47:18.126Z,100725.47
2022-10-12T07:50:07.184Z,100728.47
2022-10-12T07:52:55.334Z,100732.06
2022-10-12T07:55:49.314Z,100738.97
2022-10-12T07:58:53.412Z,100736.72
2022-10-12T08:01:52.896Z,100737.00
2022-10-12T08:07:56.158Z,100736.47
2022-10-12T08:10:45.123Z,100735.50
2022-10-12T08:13:45.907Z,100724.88
2022-10-12T08:16:34.365Z,100729.97
2022-10-12T08:19:33.019Z,100732.38
2022-10-12T08:22:29.935Z,100735.34
2022-10-12T08:25:27.246Z,100730.59
2022-10-12T08:28:29.988Z,100719.78
2022-10-12T08:42:17.850Z,100728.22
2022-10-12T08:45:38.609Z,100725.22
2022-10-12T08:48:59.212Z,100720.50
2022-10-12T08:53:17.550Z,100727.25
2022-10-12T08:56:11.749Z,100719.72
2022-10-12T08:59:39.913Z,100713.41
2022-10-12T09:02:55.233Z,100719.31
2022-10-12T09:06:32.844Z,100720.00
2022-10-12T09:10:32.672Z,100720.50
2022-10-12T09:13:51.884Z,100710.44
2022-10-12T09:16:55.419Z,100718.28
2022-10-12T09:19:53.100Z,100708.69
2022-10-12T09:23:17.460Z,100710.94
2022-10-12T09:26:21.912Z,100711.31
2022-10-12T09:29:51.592Z,100706.44
2022-10-12T09:34:36.488Z,100696.22
2022-10-12T09:37:10.983Z,100708.31
2022-10-12T09:40:31.603Z,100687.78
2022-10-12T09:48:18.746Z,100682.50
2022-10-12T09:51:17.796Z,100692.25
2022-10-12T09:55:09.723Z,100688.66
2022-10-12T09:58:32.218Z,100685.28
2022-10-12T10:02:06.336Z,100683.44
2022-10-12T10:06:14.852Z,100683.91
2022-10-12T10:10:00.642Z,100689.28
2022-10-12T10:13:09.677Z,100683.38
2022-10-12T10:17:05.667Z,100680.44
2022-10-12T10:24:57.537Z,100676.69
2022-10-12T10:29:14.416Z,100676.81
2022-10-12T10:38:07.180Z,100672.84
2022-10-12T10:45:23.213Z,100655.94
2022-10-12T10:55:51.342Z,100666.06
2022-10-12T10:59:09.760Z,100642.38
2022-10-12T11:02:37.685Z,100649.06
2022-10-12T11:18:30.978Z,100648.06
2022-10-12T11:26:10.619Z,100627.97
2022-10-12T11:29:11.397Z,100610.03
2022-10-12T11:32:41.863Z,100612.00
2022-10-12T11:35:45.665Z,100608.19
2022-10-12T12:00:45.963Z,100598.19
2022-10-12T12:04:48.927Z,100588.81
2022-10-12T12:07:43.038Z,100591.69
2022-10-12T12:15:15.989Z,100578.75
2022-10-12T12:18:39.461Z,100570.56
2022-10-12T12:31:05.791Z,100573.66
2022-10-12T12:35:00.304Z,100565.88
2022-10-12T12:48:57.086Z,100557.09
2022-10-12T13:01:45.450Z,100563.34
2022-10-12T13:49:01.287Z,100510.56
2022-10-12T13:52:14.148Z,100515.00
2022-10-12T13:59:23.923Z,100511.28
2022-10-12T14:03:43.363Z,100506.22
2022-10-12T14:14:40.425Z,100510.25
2022-10-12T14:17:37.381Z,100509.38
2022-10-12T14:21:32.176Z,100514.25
2022-10-12T14:24:24.953Z,100510.28
2022-10-12T14:27:24.717Z,100502.66
2022-10-12T14:30:39.252Z,100508.09
2022-10-12T14:33:35.515Z,100499.72
2022-10-12T14:36:26.330Z,100503.66
2022-10-12T14:39:14.924Z,100500.19
2022-10-12T14:42:36.533Z,100478.16
2022-10-12T14:45:26.058Z,100492.16
2022-10-12T14:48:25.152Z,100479.81
2022-10-12T14:51:18.403Z,100479.47
2022-10-12T14:54:06.836Z,100474.13
2022-10-12T14:56:55.229Z,100478.16
2022-10-12T14:59:43.568Z,100471.47
2022-10-12T15:02:33.268Z,100471.53
2022-10-12T15:05:23.989Z,100465.03
2022-10-12T15:08:12.074Z,100483.44
2022-10-12T15:11:06.057Z,100482.78
2022-10-12T15:13:54.552Z,100485.00
2022-10-12T15:16:45.409Z,100487.03
2022-10-12T15:19:38.442Z,100483.84
2022-10-12T15:22:27.841Z,100484.78
2022-10-12T15:25:33.184Z,100479.97
2022-10-12T15:28:24.599Z,100462.19
2022-10-12T15:31:18.396Z,100463.56
2022-10-12T15:34:13.944Z,100461.06
2022-10-12T15:37:06.490Z,100456.13
2022-10-12T15:39:58.381Z,100471.13
2022-10-12T15:42:50.791Z,100455.63
2022-10-12T15:45:41.074Z,100464.84
2022-10-12T15:48:29.760Z,100465.63
2022-10-12T15:51:25.501Z,100460.19
2022-10-12T15:54:17.336Z,100451.53
2022-10-12T15:57:07.795Z,100448.91
2022-10-12T16:00:08.802Z,100436.63
2022-10-12T16:03:04.020Z,100443.66
2022-10-12T16:05:52.476Z,100443.44
2022-10-12T16:08:40.746Z,100442.06
2022-10-12T16:11:29.046Z,100452.31
2022-10-12T16:14:17.421Z,100443.94
2022-10-12T16:17:05.918Z,100437.13
2022-10-12T16:20:02.925Z,100433.34
2022-10-12T16:22:56.200Z,100451.56
2022-10-12T16:31:20.643Z,100448.16
2022-10-12T16:34:11.634Z,100436.41
2022-10-12T16:37:01.131Z,100443.38
2022-10-12T16:39:52.698Z,100448.84
2022-10-12T16:42:41.157Z,100443.91
2022-10-12T16:45:29.518Z,100448.56
2022-10-12T16:48:17.748Z,100449.53
2022-10-12T16:51:11.313Z,100443.63
2022-10-12T16:53:59.695Z,100459.00
2022-10-12T16:56:47.758Z,100449.22
2022-10-12T16:59:35.832Z,100457.75
2022-10-12T17:02:23.728Z,100444.72
2022-10-12T17:05:11.660Z,100445.19
2022-10-12T17:08:00.018Z,100447.19
2022-10-12T17:10:47.870Z,100445.63
2022-10-12T17:13:42.228Z,100453.41
2022-10-12T17:16:50.883Z,100452.94
2022-10-12T17:19:41.006Z,100460.06
2022-10-12T17:22:29.055Z,100459.59
2022-10-12T17:25:17.147Z,100457.09
2022-10-12T17:28:05.350Z,100454.47
2022-10-12T17:30:53.439Z,100457.97
2022-10-12T17:33:41.381Z,100457.81
2022-10-12T17:36:29.334Z,100462.69
2022-10-12T17:39:18.433Z,100447.34
2022-10-12T17:42:06.822Z,100463.13
2022-10-12T17:44:54.683Z,100465.91
2022-10-12T17:47:42.608Z,100462.19
2022-10-12T17:50:30.522Z,100459.97
2022-10-12T17:53:18.421Z,100471.22
2022-10-12T17:56:09.334Z,100474.41
2022-10-12T17:59:01.110Z,100472.41
2022-10-12T18:01:50.397Z,100471.56
2022-10-12T18:04:38.545Z,100474.81
2022-10-12T18:07:26.606Z,100458.91
2022-10-12T18:10:14.669Z,100461.69
2022-10-12T18:13:02.675Z,100463.38
2022-10-12T18:15:50.569Z,100460.13
2022-10-12T18:18:39.282Z,100458.59
2022-10-12T18:21:30.073Z,100456.53
2022-10-12T18:24:18.136Z,100454.22
2022-10-12T18:27:07.014Z,100448.06
2022-10-12T18:29:56.262Z,100454.63
2022-10-12T18:32:44.418Z,100462.81
2022-10-12T18:35:38.095Z,100460.91
2022-10-12T18:38:33.956Z,100454.25
2022-10-12T18:41:28.001Z,100447.69
2022-10-12T18:44:15.971Z,100455.34
2022-10-12T18:47:06.818Z,100453.25
2022-10-12T18:49:54.674Z,100440.56
2022-10-12T18:52:50.728Z,100446.16
2022-10-12T18:55:39.158Z,100443.25
2022-10-12T18:58:27.105Z,100443.81
2022-10-12T19:01:21.999Z,100449.47
2022-10-12T19:04:10.148Z,100444.06
2022-10-12T19:06:58.070Z,100450.25
2022-10-12T19:09:45.893Z,100438.47
2022-10-12T19:12:36.207Z,100442.81
2022-10-12T19:15:26.196Z,100444.00
2022-10-12T19:18:14.063Z,100447.34
2022-10-12T19:21:12.574Z,100451.25
2022-10-12T19:24:05.864Z,100450.78
2022-10-12T19:26:54.106Z,100455.78
2022-10-12T19:29:45.647Z,100450.44
2022-10-12T19:32:37.225Z,100452.97
2022-10-12T19:35:28.774Z,100452.09
2022-10-12T19:38:16.948Z,100441.63
2022-10-12T19:41:05.251Z,100446.31
2022-10-12T19:43:53.937Z,100452.38
2022-10-12T19:46:42.876Z,100443.81
2022-10-12T19:49:36.962Z,100450.72
2022-10-12T19:52:29.976Z,100456.41
2022-10-12T19:55:18.844Z,100441.56
2022-10-12T19:58:09.061Z,100462.66
2022-10-12T20:01:14.639Z,100451.91
2022-10-12T20:04:07.261Z,100468.47
2022-10-12T20:06:57.330Z,100468.81
2022-10-12T20:09:45.269Z,100467.50
2022-10-12T20:12:34.122Z,100474.78
2022-10-12T20:15:22.062Z,100474.25
2022-10-12T20:18:10.400Z,100452.88
2022-10-12T20:20:58.730Z,100463.69
2022-10-12T20:23:47.554Z,100471.66
2022-10-12T20:26:35.498Z,100463.75
2022-10-12T20:29:23.425Z,100459.72
2022-10-12T20:32:11.484Z,100464.09
2022-10-12T20:34:59.497Z,100461.56
2022-10-12T20:37:47.428Z,100462.41
2022-10-12T20:40:38.408Z,100462.88
2022-10-12T20:43:26.358Z,100452.44
2022-10-12T20:46:17.487Z,100457.78
2022-10-12T20:49:05.508Z,100455.28
2022-10-12T20:52:02.482Z,100459.28
2022-10-12T20:55:00.930Z,100454.97
2022-10-12T20:57:54.690Z,100465.69
2022-10-12T21:00:43.103Z,100458.81
2022-10-12T21:03:37.242Z,100463.59
2022-10-12T21:06:33.083Z,100452.41
2022-10-12T21:09:21.333Z,100467.41
2022-10-12T21:12:09.718Z,100464.41
2022-10-12T21:14:57.630Z,100462.91
2022-10-12T21:17:46.904Z,100473.66
2022-10-12T21:20:37.371Z,100469.38
2022-10-12T21:23:27.046Z,100462.53
2022-10-12T21:26:17.975Z,100466.94
2022-10-12T21:29:06.791Z,100463.50
2022-10-12T21:31:55.110Z,100461.97
2022-10-12T21:34:43.134Z,100452.44
2022-10-12T21:37:31.270Z,100456.34
2022-10-12T21:40:19.188Z,100453.03
2022-10-12T21:43:07.239Z,100448.47
2022-10-12T21:45:55.311Z,100454.97
2022-10-12T21:48:43.289Z,100444.72
2022-10-12T21:51:34.445Z,100437.19
2022-10-12T21:54:22.382Z,100440.41
2022-10-12T21:57:10.574Z,100452.16
2022-10-12T21:59:58.549Z,100453.72
2022-10-12T22:02:46.897Z,100448.00
2022-10-12T22:05:42.274Z,100444.91
2022-10-12T22:08:30.271Z,100438.41
2022-10-12T22:11:18.887Z,100442.66
2022-10-12T22:14:09.688Z,100436.75
2022-10-12T22:16:57.634Z,100427.25
2022-10-12T22:19:45.539Z,100431.22
2022-10-12T22:22:33.760Z,100435.91
2022-10-12T22:25:21.775Z,100438.78
2022-10-12T22:28:09.992Z,100436.75
2022-10-12T22:30:57.824Z,100442.09
2022-10-12T22:33:46.219Z,100447.44
2022-10-12T22:36:34.259Z,100442.09
2022-10-12T22:39:22.343Z,100447.38
2022-10-12T22:42:10.286Z,100448.88
2022-10-12T22:44:58.129Z,100447.50
2022-10-12T22:47:46.252Z,100449.63
2022-10-12T22:50:34.299Z,100442.50
2022-10-12T22:53:24.995Z,100449.50
2022-10-12T22:56:18.626Z,100444.31
2022-10-12T22:59:07.224Z,100449.50
2022-10-12T23:01:55.236Z,100435.88
2022-10-12T23:04:43.609Z,100429.22
2022-10-12T23:07:31.578Z,100445.91
2022-10-12T23:10:20.065Z,100440.44
2022-10-12T23:13:08.213Z,100441.41
2022-10-12T23:15:56.109Z,100449.13
2022-10-12T23:18:44.375Z,100443.41
2022-10-12T23:21:34.878Z,100446.59
2022-10-12T23:24:22.826Z,100444.75
2022-10-12T23:27:10.659Z,100435.03
2022-10-12T23:29:58.599Z,100423.44
2022-10-12T23:32:46.706Z,100431.44
2022-10-12T23:35:34.626Z,100440.66
2022-10-12T23:38:22.594Z,100439.66
2022-10-12T23:41:11.931Z,100429.09
2022-10-12T23:43:59.782Z,100431.88
2022-10-12T23:46:47.814Z,100433.91
2022-10-12T23:49:35.671Z,100428.81
2022-10-12T23:52:23.662Z,100421.66
2022-10-12T23:55:11.547Z,100432.69
2022-10-12T23:57:59.457Z,100427.22
